Time;durP1;ratioP1;P1;durP2;ratioP2;P2;SDS_P1;SDS_P2;PMS_P1;PMS_P2;Temp;Humidity;BMP_temperature;BMP_pressure;BME280_temperature;BME280_humidity;BME280_pressure;Samples;Min_cycle;Max_cycle;Signal;HPM_P1;HPM_P2
2022/06/12 00:01:25;;;;;;;11.77;10.85;;;;;;;21.07;50.49;100737.59;5015595;28;96702;-79
2022/06/12 00:03:51;;;;;;;14.73;11.45;;;;;;;21.10;50.52;100737.38;5003380;28;97209;-79
2022/06/12 00:06:18;;;;;;;11.65;10.38;;;;;;;21.05;50.76;100734.19;5012616;28;101622;-79
2022/06/12 00:08:44;;;;;;;11.95;10.73;;;;;;;20.98;50.80;100725.78;5031655;28;98170;-79
2022/06/12 00:11:13;;;;;;;12.35;10.30;;;;;;;21.01;50.88;100727.38;4995083;28;96824;-79
2022/06/12 00:13:46;;;;;;;11.50;10.48;;;;;;;21.14;50.43;100725.53;5000702;28;99885;-79
2022/06/12 00:16:13;;;;;;;12.55;11.18;;;;;;;21.07;50.87;100729.59;5013281;28;97776;-80
2022/06/12 00:18:39;;;;;;;13.55;10.63;;;;;;;21.07;51.07;100729.59;4981514;28;101327;-79
2022/06/12 00:21:14;;;;;;;11.70;10.60;;;;;;;20.95;51.52;100723.31;4997842;28;96706;-79
2022/06/12 00:23:41;;;;;;;12.82;10.27;;;;;;;20.99;51.37;100721.28;5016158;28;96908;-79
2022/06/12 00:26:07;;;;;;;11.60;10.43;;;;;;;20.88;51.60;100729.19;5010591;28;101372;-84
2022/06/12 00:28:34;;;;;;;11.43;10.35;;;;;;;20.85;51.40;100702.72;4993284;28;101764;-79
2022/06/12 00:30:59;;;;;;;11.65;10.45;;;;;;;20.87;51.53;100706.16;5028307;28;97950;-79
2022/06/12 00:33:25;;;;;;;11.63;10.50;;;;;;;20.98;51.30;100719.59;5012131;28;96850;-80
2022/06/12 00:35:50;;;;;;;11.35;10.35;;;;;;;20.70;51.86;100697.53;5004879;28;101248;-79
2022/06/12 00:38:16;;;;;;;11.63;10.45;;;;;;;20.78;51.92;100718.34;4985932;28;101597;-80
2022/06/12 00:40:41;;;;;;;12.75;11.52;;;;;;;20.88;51.71;100715.84;5012866;28;96754;-81
2022/06/12 00:43:07;;;;;;;12.52;10.80;;;;;;;20.87;52.03;100717.69;5007401;28;97703;-79
2022/06/12 00:45:42;;;;;;;13.25;10.95;;;;;;;20.63;52.30;100704.25;5009761;28;101866;-79
2022/06/12 00:48:11;;;;;;;12.07;10.95;;;;;;;20.63;52.79;100722.09;5020794;28;101499;-80
2022/06/12 00:50:42;;;;;;;11.32;10.25;;;;;;;20.60;52.79;100724.97;4998222;28;96861;-79
2022/06/12 00:53:12;;;;;;;12.35;11.23;;;;;;;20.69;52.60;100719.84;5016688;28;97238;-87
2022/06/12 00:55:45;;;;;;;12.00;10.40;;;;;;;20.59;53.16;100724.09;4998443;28;101638;-81
2022/06/12 00:58:16;;;;;;;11.63;10.45;;;;;;;20.61;53.19;100721.31;5012365;28;101422;-83
2022/06/12 01:00:43;;;;;;;13.07;11.88;;;;;;;20.55;53.30;100718.13;4991249;28;96737;-79
2022/06/12 01:03:09;;;;;;;12.32;11.10;;;;;;;20.51;53.16;100708.59;4993271;28;97168;-87
2022/06/12 01:08:19;;;;;;;11.60;10.40;;;;;;;20.60;52.88;100695.63;5030177;28;97942;-79
2022/06/12 01:10:48;;;;;;;11.32;10.30;;;;;;;20.72;52.93;100708.94;4988824;28;97189;-80
2022/06/12 01:13:19;;;;;;;12.30;11.18;;;;;;;20.55;52.98;100677.28;5031390;28;97107;-79
2022/06/12 01:15:50;;;;;;;12.02;10.85;;;;;;;20.41;53.59;100696.00;5015098;28;98737;-79
2022/06/12 01:18:18;;;;;;;12.48;10.77;;;;;;;20.30;53.59;100675.41;5015299;28;101727;-79
2022/06/12 01:20:52;;;;;;;11.48;10.48;;;;;;;20.34;53.90;100709.75;4996511;28;97651;-80
2022/06/12 01:23:36;;;;;;;12.73;10.40;;;;;;;20.31;53.92;100706.47;4993907;28;97175;-79
2022/06/12 01:26:37;;;;;;;12.32;11.27;;;;;;;20.19;53.77;100678.84;5014334;28;101068;-79
2022/06/12 01:29:24;;;;;;;13.35;11.98;;;;;;;20.24;54.00;100695.34;5023540;28;101480;-79
2022/06/12 01:32:26;;;;;;;11.55;10.35;;;;;;;20.12;54.00;100699.69;5024119;28;96879;-79
2022/06/12 01:34:58;;;;;;;11.82;10.70;;;;;;;20.11;54.22;100689.16;4999796;28;97599;-79
2022/06/12 01:37:49;;;;;;;15.20;11.02;;;;;;;20.09;54.06;100688.41;5014262;28;101457;-79
2022/06/12 01:40:32;;;;;;;14.35;10.27;;;;;;;20.13;54.37;100682.78;5015188;28;97692;-80
2022/06/12 01:43:19;;;;;;;12.05;10.80;;;;;;;20.01;54.65;100686.28;4998328;28;96711;-80
2022/06/12 01:45:56;;;;;;;13.05;11.07;;;;;;;20.03;54.24;100664.84;5026062;27;96906;-79
2022/06/12 01:48:43;;;;;;;16.88;11.10;;;;;;;20.09;54.49;100691.91;5008734;28;101776;-80
2022/06/12 01:51:29;;;;;;;13.30;11.80;;;;;;;20.04;54.72;100690.53;5003440;28;101341;-79
2022/06/12 01:54:04;;;;;;;12.90;11.55;;;;;;;20.18;54.34;100708.25;5011995;28;96899;-79
2022/06/12 01:56:40;;;;;;;12.45;11.23;;;;;;;20.06;54.22;100696.59;4991105;28;96894;-81
2022/06/12 01:59:26;;;;;;;16.23;11.23;;;;;;;20.02;54.33;100690.66;5022986;28;101200;-79
2022/06/12 02:01:57;;;;;;;14.25;11.45;;;;;;;20.06;54.46;100702.78;5004536;28;97965;-79
2022/06/12 02:04:38;;;;;;;13.50;11.25;;;;;;;20.15;54.31;100698.66;5029253;28;97898;-79
2022/06/12 02:07:34;;;;;;;12.10;10.90;;;;;;;20.05;54.47;100701.09;4990328;28;97194;-81
2022/06/12 02:10:15;;;;;;;14.25;11.43;;;;;;;19.91;54.92;100685.19;5005313;28;98747;-80
2022/06/12 02:15:34;;;;;;;12.43;11.02;;;;;;;20.08;54.40;100695.56;5010671;28;97059;-80
2022/06/12 02:18:04;;;;;;;12.02;10.93;;;;;;;20.12;54.14;100696.19;5012940;28;96923;-81
2022/06/12 02:20:35;;;;;;;12.60;11.30;;;;;;;20.03;54.50;100697.66;4993900;28;102293;-80
2022/06/12 02:23:04;;;;;;;14.77;10.70;;;;;;;20.02;54.71;100695.97;5004813;28;101164;-80
2022/06/12 02:25:33;;;;;;;11.60;10.50;;;;;;;19.98;54.76;100686.47;4993532;28;96904;-79
2022/06/12 02:28:04;;;;;;;10.85;9.80;;;;;;;19.99;54.79;100690.84;5002490;28;97086;-79
2022/06/12 02:30:34;;;;;;;14.55;10.57;;;;;;;19.84;54.77;100670.59;4989755;28;101021;-82
2022/06/12 02:33:22;;;;;;;14.25;10.80;;;;;;;19.93;54.95;100688.59;5002552;28;101288;-81
2022/06/12 02:35:52;;;;;;;10.98;9.98;;;;;;;19.90;54.76;100692.31;5007275;28;97228;-79
2022/06/12 02:38:23;;;;;;;11.83;9.63;;;;;;;19.87;54.60;100695.19;4997938;28;97290;-80
2022/06/12 02:40:52;;;;;;;10.00;9.05;;;;;;;19.90;54.69;100683.47;5017595;28;97501;-79
2022/06/12 02:43:21;;;;;;;9.90;8.90;;;;;;;20.01;54.47;100698.72;5013525;28;98057;-79
2022/06/12 02:45:51;;;;;;;11.52;10.32;;;;;;;19.97;54.34;100687.44;5010446;28;98052;-83
2022/06/12 02:48:17;;;;;;;11.90;10.48;;;;;;;19.99;54.70;100680.19;5015387;28;97169;-81
2022/06/12 02:50:54;;;;;;;10.82;9.73;;;;;;;20.12;54.01;100697.03;4998389;28;101407;-79
2022/06/12 02:54:01;;;;;;;12.00;10.98;;;;;;;19.97;54.40;100686.56;5017249;28;101528;-79
2022/06/12 02:56:32;;;;;;;12.27;10.85;;;;;;;19.93;54.46;100699.25;4956947;28;97016;-79
2022/06/12 02:58:59;;;;;;;;;;;;;;;19.89;54.85;100695.94;5013108;28;97234;-79
2022/06/12 03:01:51;;;;;;;10.98;10.00;;;;;;;19.90;54.41;100691.47;4999983;28;101365;-79
2022/06/12 03:04:25;;;;;;;12.25;10.95;;;;;;;19.86;54.48;100680.16;5009144;28;97977;-79
2022/06/12 03:06:52;;;;;;;12.45;10.63;;;;;;;19.94;54.94;100702.78;5014669;28;96745;-79
2022/06/12 03:09:17;;;;;;;13.10;10.85;;;;;;;20.01;54.77;100702.28;5000254;28;97273;-80
2022/06/12 03:11:44;;;;;;;13.65;12.00;;;;;;;20.01;54.81;100704.06;5008200;28;98097;-79
2022/06/12 03:14:15;;;;;;;14.02;11.68;;;;;;;19.99;54.93;100701.50;5000637;28;101018;-79
2022/06/12 03:16:42;;;;;;;13.35;11.60;;;;;;;19.95;55.13;100700.00;4998492;28;97483;-79
2022/06/12 03:19:17;;;;;;;14.85;12.95;;;;;;;19.88;55.28;100696.88;5014314;28;97116;-80
2022/06/12 03:22:14;;;;;;;12.90;11.80;;;;;;;19.87;55.79;100697.84;5008801;28;97839;-79
2022/06/12 03:24:54;;;;;;;13.98;12.65;;;;;;;19.86;55.32;100698.78;5027773;28;101323;-79
2022/06/12 03:27:29;;;;;;;12.63;11.60;;;;;;;19.93;55.11;100701.06;5013331;28;96842;-79
2022/06/12 03:29:57;;;;;;;13.65;12.30;;;;;;;19.87;55.21;100697.00;5025587;28;96949;-79
2022/06/12 03:32:44;;;;;;;12.48;11.45;;;;;;;19.63;55.59;100657.72;5015525;28;101644;-80
2022/06/12 03:35:25;;;;;;;12.60;11.48;;;;;;;19.94;55.19;100692.97;5025899;28;101295;-79
2022/06/12 03:37:59;;;;;;;12.43;11.27;;;;;;;19.92;55.17;100689.53;5025633;28;97035;-79
2022/06/12 03:41:03;;;;;;;13.20;11.85;;;;;;;19.87;55.35;100695.19;5015697;28;96970;-82
2022/06/12 03:44:00;;;;;;;12.68;11.48;;;;;;;19.92;55.24;100691.34;4997657;28;101807;-80
2022/06/12 03:46:41;;;;;;;12.82;11.52;;;;;;;20.06;54.98;100697.47;5014580;28;98249;-79
2022/06/12 03:49:10;;;;;;;12.25;11.02;;;;;;;20.06;54.67;100694.78;5026936;28;97249;-79
2022/06/12 03:51:43;;;;;;;12.48;11.38;;;;;;;20.12;54.66;100697.03;5010216;28;97807;-79
2022/06/12 03:54:22;;;;;;;12.60;10.88;;;;;;;20.29;54.42;100708.38;5005760;28;101018;-79
2022/06/12 03:59:45;;;;;;;12.38;11.18;;;;;;;20.29;53.99;100705.69;5017287;27;96949;-79
2022/06/12 04:02:14;;;;;;;12.20;11.07;;;;;;;20.26;53.96;100703.25;4997937;28;96916;-79
2022/06/12 04:04:41;;;;;;;12.68;11.50;;;;;;;20.31;54.01;100709.97;5007525;28;101720;-79
2022/06/12 04:07:08;;;;;;;11.82;10.63;;;;;;;20.19;54.10;100693.94;5008775;28;97608;-79
2022/06/12 04:09:39;;;;;;;12.32;11.32;;;;;;;20.34;53.89;100706.25;5012171;28;97050;-79
2022/06/12 04:12:09;;;;;;;11.75;10.80;;;;;;;20.48;53.45;100715.97;4999152;28;96980;-83
2022/06/12 04:14:41;;;;;;;13.23;11.10;;;;;;;20.44;53.68;100698.47;5017947;27;98135;-80
2022/06/12 04:17:08;;;;;;;12.38;11.38;;;;;;;20.44;53.74;100696.63;4994359;28;100834;-80
2022/06/12 04:19:59;;;;;;;12.18;11.00;;;;;;;20.47;53.90;100704.44;5004953;28;97305;-80
2022/06/12 04:22:38;;;;;;;12.10;11.10;;;;;;;20.54;53.83;100703.09;5008954;28;97240;-79
2022/06/12 04:25:32;;;;;;;11.77;10.03;;;;;;;20.63;53.55;100701.59;4999660;28;101337;-81
2022/06/12 04:27:58;;;;;;;12.43;11.30;;;;;;;20.53;53.79;100681.84;4995449;28;100843;-79
2022/06/12 04:30:25;;;;;;;12.95;11.88;;;;;;;20.85;52.93;100702.72;4995141;28;97245;-79
2022/06/12 04:33:10;;;;;;;12.05;10.95;;;;;;;20.92;52.98;100696.88;5009836;28;96861;-79
2022/06/12 04:35:41;;;;;;;11.90;10.77;;;;;;;20.89;53.05;100689.09;5010719;28;97339;-79
2022/06/12 04:38:07;;;;;;;13.05;11.75;;;;;;;20.99;52.51;100700.78;4998237;28;101488;-80
2022/06/12 04:40:32;;;;;;;11.35;10.32;;;;;;;21.07;52.45;100699.41;5007923;28;97197;-80
2022/06/12 04:42:58;;;;;;;14.70;10.70;;;;;;;21.11;52.37;100707.06;5028086;28;97281;-80
2022/06/12 04:45:23;;;;;;;12.38;11.00;;;;;;;21.06;52.60;100681.66;5010034;28;98547;-79
2022/06/12 04:47:49;;;;;;;12.75;11.10;;;;;;;21.28;52.11;100702.31;5014624;28;101108;-79
2022/06/12 04:50:15;;;;;;;12.38;11.32;;;;;;;21.35;52.22;100712.47;5011399;28;97410;-80
2022/06/12 04:52:41;;;;;;;12.18;11.18;;;;;;;21.44;52.04;100705.63;5004064;28;96870;-79
2022/06/12 04:55:07;;;;;;;12.18;10.98;;;;;;;21.51;52.07;100706.88;4994699;28;101369;-81
2022/06/12 04:57:33;;;;;;;11.30;9.98;;;;;;;21.43;51.97;100693.22;5031942;28;101847;-79
2022/06/12 04:59:58;;;;;;;11.68;10.77;;;;;;;21.61;52.34;100704.34;5016350;28;97490;-79
2022/06/12 05:02:24;;;;;;;11.65;10.63;;;;;;;21.64;51.88;100707.66;5001914;28;97131;-79
2022/06/12 05:04:50;;;;;;;12.43;10.38;;;;;;;21.89;51.58;100711.16;4994577;28;101239;-79
2022/06/12 05:07:15;;;;;;;11.23;10.23;;;;;;;22.01;51.49;100707.56;5013293;28;100988;-79
2022/06/12 05:09:42;;;;;;;11.85;10.77;;;;;;;22.10;51.53;100706.84;5026389;27;96796;-80
2022/06/12 05:12:10;;;;;;;11.15;10.07;;;;;;;22.38;50.85;100708.31;4997945;28;97215;-79
2022/06/12 05:14:35;;;;;;;15.32;11.57;;;;;;;22.81;50.40;100717.47;4993632;28;101681;-80
2022/06/12 05:17:05;;;;;;;11.27;10.23;;;;;;;23.12;50.07;100713.22;5010979;28;100715;-80
2022/06/12 05:19:34;;;;;;;10.68;9.80;;;;;;;23.31;49.37;100690.31;4998215;28;97194;-80
2022/06/12 05:22:00;;;;;;;10.85;9.85;;;;;;;23.33;49.46;100705.28;5003714;28;96888;-80
2022/06/12 05:24:26;;;;;;;11.93;10.50;;;;;;;23.37;48.91;100706.72;5009891;28;97927;-80
2022/06/12 05:26:53;;;;;;;11.55;10.65;;;;;;;23.55;48.67;100706.19;5009492;28;97335;-82
2022/06/12 05:29:24;;;;;;;10.85;9.82;;;;;;;23.66;48.79;100688.25;5012063;28;97199;-83
2022/06/12 05:31:50;;;;;;;11.80;10.70;;;;;;;24.14;48.23;100706.59;5010282;28;97068;-80
2022/06/12 05:34:17;;;;;;;11.13;10.13;;;;;;;24.03;48.30;100713.81;5013563;28;101275;-79
2022/06/12 05:36:43;;;;;;;10.70;9.77;;;;;;;24.02;48.10;100714.81;4997638;28;101487;-79
2022/06/12 05:39:09;;;;;;;10.73;9.82;;;;;;;24.02;47.99;100709.44;5015659;28;97214;-80
2022/06/12 05:41:34;;;;;;;10.80;9.98;;;;;;;24.03;47.87;100706.66;5004551;28;96995;-81
2022/06/12 05:44:00;;;;;;;11.65;10.38;;;;;;;24.34;47.88;100715.59;5014353;28;102763;-81
2022/06/12 05:46:26;;;;;;;11.00;10.10;;;;;;;24.38;47.77;100708.16;5005480;28;101379;-82
2022/06/12 05:48:52;;;;;;;10.05;9.35;;;;;;;24.34;47.29;100696.81;4993599;28;97519;-80
2022/06/12 05:51:18;;;;;;;9.65;8.85;;;;;;;24.65;47.13;100704.94;5004752;28;97365;-82
2022/06/12 05:53:44;;;;;;;10.20;9.40;;;;;;;25.23;46.24;100699.81;5013173;28;101240;-82
2022/06/12 05:56:13;;;;;;;13.52;12.32;;;;;;;26.43;44.30;100707.63;4993715;28;101374;-82
2022/06/12 05:58:39;;;;;;;13.00;11.88;;;;;;;27.28;42.74;100684.19;5005631;28;97945;-82
2022/06/12 06:01:06;;;;;;;12.82;11.73;;;;;;;28.51;40.70;100704.19;5008735;28;97328;-82
2022/06/12 06:03:32;;;;;;;13.38;12.27;;;;;;;29.42;39.36;100700.91;5002613;28;100990;-82
2022/06/12 06:05:59;;;;;;;12.50;11.60;;;;;;;30.29;37.81;100701.34;5010410;28;101484;-82
2022/06/12 06:08:25;;;;;;;12.13;11.07;;;;;;;31.10;36.36;100684.84;5004987;28;96861;-82
2022/06/12 06:10:50;;;;;;;13.35;12.23;;;;;;;31.93;35.69;100696.03;5011330;28;97298;-82
2022/06/12 06:13:16;;;;;;;12.48;11.25;;;;;;;32.96;33.81;100695.34;5011144;28;101405;-82
2022/06/12 06:15:42;;;;;;;11.32;10.57;;;;;;;33.78;32.46;100699.66;5008728;28;98562;-83
2022/06/12 06:18:08;;;;;;;11.93;11.00;;;;;;;34.33;31.90;100691.75;5009559;28;97439;-82
2022/06/12 06:20:35;;;;;;;11.38;10.57;;;;;;;34.52;31.14;100692.91;5020160;28;97302;-81
2022/06/12 06:23:01;;;;;;;11.20;10.40;;;;;;;33.92;31.55;100686.97;5006789;28;101169;-82
2022/06/12 06:25:28;;;;;;;11.38;10.52;;;;;;;34.33;31.24;100686.31;5007144;28;98081;-82
2022/06/12 06:27:54;;;;;;;11.25;10.32;;;;;;;35.52;29.33;100691.47;5010389;28;97030;-82
2022/06/12 06:30:21;;;;;;;11.98;10.90;;;;;;;36.35;28.18;100683.78;5010769;28;97660;-83
2022/06/12 06:32:46;;;;;;;10.80;10.10;;;;;;;36.84;27.86;100690.63;5024228;28;98514;-82
2022/06/12 06:35:13;;;;;;;10.65;9.95;;;;;;;36.33;27.92;100682.31;5023217;28;97404;-84
2022/06/12 06:37:39;;;;;;;10.68;9.80;;;;;;;34.14;30.22;100690.56;5019808;28;97727;-82
2022/06/12 06:40:07;;;;;;;10.07;9.38;;;;;;;33.04;31.97;100688.97;5005464;27;97571;-82
2022/06/12 06:42:32;;;;;;;10.50;9.68;;;;;;;33.20;31.88;100696.91;5021014;28;99789;-83
2022/06/12 06:47:41;;;;;;;9.57;8.93;;;;;;;33.36;31.28;100693.09;5019728;27;97820;-85
2022/06/12 06:50:10;;;;;;;10.75;9.95;;;;;;;32.41;32.98;100691.19;5003835;28;98002;-85
2022/06/12 06:52:36;;;;;;;9.73;9.02;;;;;;;32.14;33.39;100701.63;5006898;28;101126;-80
2022/06/12 06:55:02;;;;;;;10.40;9.60;;;;;;;31.44;34.19;100691.78;5023689;28;101271;-83
2022/06/12 06:57:28;;;;;;;10.30;9.38;;;;;;;31.40;34.83;100695.06;4991621;28;97314;-83
2022/06/12 06:59:53;;;;;;;9.80;9.00;;;;;;;31.71;34.34;100700.44;5003951;28;97894;-84
2022/06/12 07:02:19;;;;;;;10.02;9.10;;;;;;;31.53;34.47;100698.00;4998768;28;101051;-83
2022/06/12 07:04:44;;;;;;;10.13;9.43;;;;;;;31.38;34.80;100705.22;5007720;28;98518;-82
2022/06/12 07:07:10;;;;;;;10.95;10.05;;;;;;;31.68;34.16;100684.50;5007984;28;97127;-82
2022/06/12 07:09:38;;;;;;;10.43;9.55;;;;;;;31.67;33.89;100697.22;5008598;28;96882;-82
2022/06/12 07:12:04;;;;;;;11.20;10.07;;;;;;;32.45;33.61;100697.97;5000585;28;100752;-82
2022/06/12 07:14:30;;;;;;;11.40;10.18;;;;;;;33.65;31.65;100694.91;4997425;28;102505;-82
2022/06/12 07:16:55;;;;;;;10.48;9.77;;;;;;;34.38;30.55;100689.25;4984842;28;97260;-83
2022/06/12 07:19:22;;;;;;;11.20;10.23;;;;;;;35.50;29.70;100690.88;5000239;28;96927;-82
2022/06/12 07:21:47;;;;;;;10.52;9.68;;;;;;;34.75;30.02;100679.88;4988926;28;101757;-82
2022/06/12 07:24:13;;;;;;;10.38;9.52;;;;;;;35.09;29.35;100679.00;5003673;28;101816;-83
2022/06/12 07:26:42;;;;;;;11.05;10.18;;;;;;;35.62;28.73;100672.84;5014512;28;97369;-82
2022/06/12 07:29:09;;;;;;;10.75;9.95;;;;;;;36.04;28.14;100659.84;5011625;28;97288;-83
2022/06/12 07:31:34;;;;;;;10.85;10.05;;;;;;;36.36;28.07;100670.97;5013358;28;98285;-82
2022/06/12 07:34:00;;;;;;;13.30;12.05;;;;;;;36.68;27.24;100664.63;5016372;27;100963;-82
2022/06/12 07:36:26;;;;;;;11.15;10.30;;;;;;;36.90;27.41;100672.50;5024981;28;97356;-82
2022/06/12 07:38:52;;;;;;;12.18;11.18;;;;;;;37.05;26.99;100672.25;5025974;28;96843;-82
2022/06/12 07:41:18;;;;;;;12.15;11.20;;;;;;;37.26;26.53;100660.16;5014787;28;97434;-82
2022/06/12 07:43:45;;;;;;;11.43;10.68;;;;;;;36.77;26.81;100665.22;4997898;28;101645;-84
2022/06/12 07:46:14;;;;;;;11.82;11.02;;;;;;;36.93;26.02;100661.97;5009754;28;97156;-83
2022/06/12 07:48:40;;;;;;;11.60;10.75;;;;;;;36.93;25.85;100645.56;5008883;28;97133;-82
2022/06/12 07:51:10;;;;;;;12.80;11.77;;;;;;;36.85;26.26;100656.75;4998715;28;100049;-83
2022/06/12 07:53:35;;;;;;;11.55;10.80;;;;;;;37.05;26.17;100656.69;5002182;28;99735;-82
2022/06/12 07:56:01;;;;;;;10.57;9.77;;;;;;;37.04;26.30;100663.22;5029666;27;96659;-82
2022/06/12 07:58:27;;;;;;;11.52;10.73;;;;;;;36.99;26.08;100641.13;5024280;28;97190;-84
2022/06/12 08:00:55;;;;;;;12.23;11.43;;;;;;;37.51;25.80;100650.13;5014875;28;97619;-83
2022/06/12 08:03:21;;;;;;;12.15;11.40;;;;;;;37.41;25.31;100647.03;4997730;28;101150;-83
2022/06/12 08:05:47;;;;;;;11.55;10.73;;;;;;;38.33;24.42;100650.06;5009786;28;96840;-84
2022/06/12 08:08:12;;;;;;;12.73;11.73;;;;;;;38.38;24.38;100652.94;5021855;28;97019;-83
2022/06/12 08:10:38;;;;;;;12.07;11.18;;;;;;;38.52;23.75;100645.47;5003178;28;101387;-83
2022/06/12 08:13:10;;;;;;;12.32;11.52;;;;;;;38.60;24.06;100641.56;5012831;28;97619;-82
2022/06/12 08:15:39;;;;;;;12.18;11.45;;;;;;;38.72;23.45;100648.78;4997584;28;97209;-83
2022/06/12 08:18:05;;;;;;;12.02;11.23;;;;;;;38.65;23.28;100637.06;5021403;28;97077;-82
2022/06/12 08:20:33;;;;;;;12.52;11.65;;;;;;;38.81;22.95;100640.25;5016775;28;98227;-83
2022/06/12 08:23:05;;;;;;;11.88;11.18;;;;;;;38.73;21.82;100652.38;5024711;28;101540;-83
2022/06/12 08:25:34;;;;;;;11.85;11.05;;;;;;;38.89;21.80;100643.53;5023311;28;98026;-82
2022/06/12 08:28:00;;;;;;;12.03;11.23;;;;;;;39.30;21.46;100622.72;5020623;28;97513;-84
2022/06/12 08:30:26;;;;;;;11.90;11.20;;;;;;;39.44;21.88;100625.25;5043287;27;98332;-85
2022/06/12 08:32:53;;;;;;;11.93;11.23;;;;;;;38.98;21.19;100645.94;5004781;28;100482;-84
2022/06/12 08:35:24;;;;;;;11.95;11.25;;;;;;;38.89;22.25;100620.75;5010722;28;97418;-83
2022/06/12 08:37:49;;;;;;;11.57;10.98;;;;;;;38.97;21.33;100619.59;5019773;28;97771;-84
2022/06/12 08:40:23;;;;;;;11.75;10.95;;;;;;;39.22;22.03;100625.78;5027886;27;97231;-84
2022/06/12 08:43:02;;;;;;;11.60;10.98;;;;;;;39.15;20.53;100623.09;5020007;27;101210;-82
2022/06/12 08:45:29;;;;;;;;;;;;;;;38.92;21.67;100621.16;5009895;28;97561;-82
2022/06/12 08:47:58;;;;;;;11.73;10.77;;;;;;;39.05;21.67;100600.06;5009952;28;96847;-84
2022/06/12 08:50:45;;;;;;;10.85;10.23;;;;;;;39.10;21.46;100600.22;5010813;28;101705;-84
2022/06/12 08:53:52;;;;;;;10.98;10.32;;;;;;;39.17;21.87;100617.41;4995618;28;101278;-83
2022/06/12 08:56:26;;;;;;;10.73;10.13;;;;;;;39.20;21.18;100616.94;5027200;28;97361;-83
2022/06/12 08:59:08;;;;;;;11.75;10.95;;;;;;;39.22;21.37;100609.31;5005202;28;98574;-86
2022/06/12 09:01:41;;;;;;;11.05;10.32;;;;;;;38.97;22.14;100614.09;4990812;28;101486;-84
2022/06/12 09:04:15;;;;;;;11.20;10.50;;;;;;;38.36;22.63;100613.97;5004727;28;101444;-83
2022/06/12 09:06:44;;;;;;;10.90;10.20;;;;;;;38.24;23.17;100610.31;5026053;28;97385;-84
2022/06/12 09:09:37;;;;;;;10.90;10.20;;;;;;;38.26;21.94;100613.66;5025871;28;97504;-83
2022/06/12 09:12:19;;;;;;;10.27;9.57;;;;;;;37.65;21.87;100601.59;5019271;28;100883;-84
2022/06/12 09:15:16;;;;;;;10.00;9.20;;;;;;;37.31;22.22;100600.13;5018208;27;100395;-82
2022/06/12 09:17:50;;;;;;;10.60;9.68;;;;;;;37.15;22.90;100598.78;5005739;28;97519;-84
2022/06/12 09:20:22;;;;;;;10.65;9.85;;;;;;;37.22;22.63;100605.03;5010861;28;97596;-85
2022/06/12 09:22:47;;;;;;;10.02;9.38;;;;;;;36.31;23.69;100597.84;5008673;28;100332;-85
2022/06/12 09:25:33;;;;;;;9.70;9.05;;;;;;;35.91;24.33;100597.03;5026671;28;100225;-90
2022/06/12 09:28:17;;;;;;;9.90;9.10;;;;;;;33.07;27.83;100593.41;5004219;27;97415;-83
2022/06/12 09:30:48;;;;;;;8.98;8.38;;;;;;;31.86;29.03;100592.78;5029871;28;97335;-90
2022/06/12 09:33:43;;;;;;;9.23;8.63;;;;;;;31.42;28.96;100595.38;5029037;28;97510;-94
2022/06/12 09:36:09;;;;;;;10.32;8.95;;;;;;;31.55;29.55;100591.00;4997742;28;100936;-90
2022/06/12 09:39:06;;;;;;;9.32;8.73;;;;;;;31.44;29.20;100594.16;5028198;28;97364;-93
2022/06/12 09:41:47;;;;;;;10.10;9.27;;;;;;;31.50;29.06;100560.03;5008668;28;97401;-90
2022/06/12 09:44:49;;;;;;;9.25;8.70;;;;;;;32.37;26.62;100576.63;5028573;28;99961;-89
2022/06/12 09:47:25;;;;;;;9.65;8.85;;;;;;;32.41;27.14;100572.53;4995005;28;99639;-90
2022/06/12 09:50:09;;;;;;;9.82;9.15;;;;;;;32.66;26.46;100574.94;5016474;28;96717;-86
2022/06/12 09:52:54;;;;;;;9.20;8.60;;;;;;;32.68;27.32;100572.88;4983353;28;97286;-86
2022/06/12 09:55:42;;;;;;;9.43;8.73;;;;;;;31.65;29.31;100571.78;5006102;28;100938;-88
2022/06/12 09:58:11;;;;;;;10.15;9.43;;;;;;;31.15;29.82;100581.28;5003608;28;100152;-85
2022/06/12 10:00:41;;;;;;;8.60;8.07;;;;;;;31.48;29.04;100565.66;5030358;27;97248;-82
2022/06/12 10:03:07;;;;;;;9.18;8.40;;;;;;;31.58;28.83;100574.38;4984928;28;97003;-88
2022/06/12 10:05:41;;;;;;;9.30;8.80;;;;;;;31.97;28.19;100569.78;5025309;28;98490;-86
2022/06/12 10:08:13;;;;;;;9.55;8.95;;;;;;;30.92;30.28;100543.31;5008284;28;101445;-86
2022/06/12 10:10:53;;;;;;;8.80;8.07;;;;;;;31.55;28.60;100558.47;5008123;28;96859;-87
2022/06/12 10:13:22;;;;;;;9.30;8.70;;;;;;;31.74;28.66;100553.56;5010287;28;97360;-85
2022/06/12 10:15:55;;;;;;;9.30;8.70;;;;;;;31.48;29.33;100538.53;5002565;28;101349;-90
2022/06/12 10:18:27;;;;;;;8.68;8.18;;;;;;;31.48;29.10;100541.25;5019736;28;97361;-92
2022/06/12 10:20:56;;;;;;;8.93;8.07;;;;;;;31.25;30.08;100543.09;4992226;28;97366;-85
2022/06/12 10:23:22;;;;;;;8.40;7.80;;;;;;;30.13;31.36;100543.31;5009859;28;97178;-89
2022/06/12 10:25:54;;;;;;;8.85;8.25;;;;;;;29.68;32.02;100550.19;5011673;28;98405;-89
2022/06/12 10:28:23;;;;;;;9.20;8.40;;;;;;;29.53;32.20;100550.00;5002067;28;97948;-87
2022/06/12 10:31:03;;;;;;;9.10;8.50;;;;;;;29.82;31.49;100550.47;5007442;28;97411;-87
2022/06/12 10:33:31;;;;;;;9.77;9.15;;;;;;;30.44;31.11;100546.09;4994269;28;97786;-87
2022/06/12 10:36:02;;;;;;;9.65;8.85;;;;;;;30.75;30.74;100539.88;5008020;28;101738;-86
2022/06/12 10:38:32;;;;;;;9.35;8.75;;;;;;;30.04;32.05;100529.97;4999984;28;100500;-90
2022/06/12 10:41:03;;;;;;;8.95;8.10;;;;;;;30.18;31.89;100538.22;5002601;28;97473;-87
2022/06/12 10:43:46;;;;;;;9.00;8.48;;;;;;;30.00;31.75;100533.03;5011525;28;96832;-93
2022/06/12 10:46:14;;;;;;;8.95;8.32;;;;;;;29.88;31.77;100533.59;5010943;28;97927;-84
2022/06/12 10:48:40;;;;;;;9.60;9.00;;;;;;;29.99;31.91;100533.19;5023123;28;101506;-83
2022/06/12 10:51:11;;;;;;;9.18;8.27;;;;;;;29.57;32.38;100536.97;5012068;28;97346;-83
2022/06/12 10:53:37;;;;;;;9.57;8.85;;;;;;;29.53;32.62;100514.00;5012903;28;97317;-89
2022/06/12 10:56:27;;;;;;;9.30;8.63;;;;;;;29.79;32.46;100524.66;5028601;28;98454;-88
2022/06/12 10:59:01;;;;;;;9.43;8.63;;;;;;;29.91;32.28;100533.25;5020483;28;98092;-89
2022/06/12 11:01:48;;;;;;;8.55;8.05;;;;;;;30.00;30.83;100529.50;5023085;28;96920;-84
2022/06/12 11:04:44;;;;;;;8.50;7.90;;;;;;;30.01;31.17;100518.47;5024904;27;96945;-84
2022/06/12 11:07:42;;;;;;;9.00;8.40;;;;;;;30.22;31.17;100526.06;5019374;27;97005;-87
2022/06/12 11:10:22;;;;;;;8.50;7.90;;;;;;;30.40;30.95;100520.41;5031804;28;101028;-83
2022/06/12 11:12:57;;;;;;;9.00;8.27;;;;;;;30.56;30.69;100518.63;5031804;28;98626;-83
2022/06/12 11:15:38;;;;;;;8.68;8.18;;;;;;;30.76;30.71;100508.19;5025708;28;97264;-82
2022/06/12 11:18:14;;;;;;;9.00;8.40;;;;;;;30.92;30.37;100508.09;5022945;28;97979;-82
2022/06/12 11:20:51;;;;;;;8.95;8.35;;;;;;;31.10;30.37;100507.81;5030796;28;101732;-82
2022/06/12 11:23:21;;;;;;;8.90;8.20;;;;;;;31.21;30.31;100503.81;5033011;28;97166;-82
2022/06/12 11:25:57;;;;;;;8.90;8.20;;;;;;;31.22;29.61;100500.94;5013520;28;98225;-82
2022/06/12 11:28:53;;;;;;;8.27;7.70;;;;;;;31.23;28.87;100499.91;5011701;28;101338;-83
2022/06/12 11:31:35;;;;;;;8.95;8.13;;;;;;;31.12;28.36;100476.75;5028689;27;97681;-82
2022/06/12 11:34:04;;;;;;;7.63;7.13;;;;;;;31.20;28.72;100488.59;5025443;28;97312;-82
2022/06/12 11:36:36;;;;;;;8.27;7.78;;;;;;;31.01;27.88;100487.19;5032596;28;96862;-82
2022/06/12 11:39:15;;;;;;;7.90;7.40;;;;;;;30.71;28.42;100476.22;5032610;28;97522;-82
2022/06/12 11:42:10;;;;;;;7.47;6.97;;;;;;;30.56;28.31;100480.72;5032795;27;97558;-82
2022/06/12 11:44:35;;;;;;;8.15;7.38;;;;;;;30.51;28.64;100486.66;4995837;28;97005;-82
2022/06/12 11:47:36;;;;;;;8.00;7.40;;;;;;;30.62;29.00;100478.13;5021162;28;96830;-82